createdAt,value
2018-09-05T00:00:09.846Z,6.27
2018-09-05T00:02:39.685Z,6.13
2018-09-05T00:05:10.283Z,6.03
2018-09-05T00:07:40.554Z,6.75
2018-09-05T00:10:10.641Z,6.53
2018-09-05T00:12:40.595Z,6.40
2018-09-05T00:15:10.770Z,6.30
2018-09-05T00:17:40.671Z,6.40
2018-09-05T00:20:10.518Z,6.87
2018-09-05T00:22:40.701Z,6.40
2018-09-05T00:25:10.810Z,6.00
2018-09-05T00:27:40.740Z,6.27
2018-09-05T00:30:10.774Z,5.80
2018-09-05T00:32:41.000Z,6.60
2018-09-05T00:35:11.246Z,6.23
2018-09-05T00:37:41.754Z,8.58
2018-09-05T00:40:12.037Z,8.57
2018-09-05T00:42:41.994Z,8.27
2018-09-05T00:45:11.824Z,8.40
2018-09-05T00:47:41.589Z,8.30
2018-09-05T00:50:11.752Z,7.23
2018-09-05T00:52:41.802Z,8.67
2018-09-05T00:55:11.622Z,8.73
2018-09-05T00:57:41.477Z,7.93
2018-09-05T01:00:11.521Z,7.63
2018-09-05T01:02:41.432Z,8.10
2018-09-05T01:05:11.557Z,7.47
2018-09-05T01:07:41.420Z,6.87
2018-09-05T01:10:11.512Z,6.60
2018-09-05T01:12:41.662Z,8.10
2018-09-05T01:15:11.617Z,8.10
2018-09-05T01:17:41.690Z,8.07
2018-09-05T01:20:11.653Z,7.70
2018-09-05T01:22:41.496Z,7.97
2018-09-05T01:25:11.671Z,7.60
2018-09-05T01:27:41.615Z,7.43
2018-09-05T01:30:11.616Z,7.73
2018-09-05T01:32:42.054Z,7.50
2018-09-05T01:35:11.785Z,7.07
2018-09-05T01:37:41.706Z,7.77
2018-09-05T01:40:11.589Z,6.63
2018-09-05T01:42:41.609Z,7.03
2018-09-05T01:45:11.712Z,7.10
2018-09-05T01:47:43.764Z,7.70
2018-09-05T01:50:13.914Z,7.83
2018-09-05T01:52:43.705Z,7.67
2018-09-05T01:55:13.502Z,7.57
2018-09-05T01:57:43.565Z,7.97
2018-09-05T02:00:17.444Z,8.17
2018-09-05T02:02:47.703Z,8.20
2018-09-05T02:05:17.428Z,7.47
2018-09-05T02:07:47.713Z,8.27
2018-09-05T02:10:17.544Z,7.83
2018-09-05T02:12:47.395Z,8.13
2018-09-05T02:15:17.677Z,8.18
2018-09-05T02:17:47.502Z,7.92
2018-09-05T02:20:18.051Z,8.60
2018-09-05T02:22:48.226Z,8.90
2018-09-05T02:25:18.294Z,8.28
2018-09-05T02:27:48.233Z,8.33
2018-09-05T02:30:18.066Z,9.47
2018-09-05T02:32:48.384Z,8.30
2018-09-05T02:35:18.199Z,8.07
2018-09-05T02:37:48.618Z,6.97
2018-09-05T02:40:18.487Z,6.70
2018-09-05T02:42:48.264Z,6.97
2018-09-05T02:46:09.958Z,6.87
2018-09-05T02:48:40.076Z,7.50
2018-09-05T02:51:09.950Z,7.77
2018-09-05T02:53:39.816Z,8.30
2018-09-05T02:56:09.703Z,8.03
2018-09-05T02:58:40.047Z,8.70
2018-09-05T03:01:09.842Z,8.03
2018-09-05T03:03:39.809Z,8.67
2018-09-05T03:06:09.653Z,8.77
2018-09-05T03:08:39.622Z,9.27
2018-09-05T03:11:09.670Z,9.77
2018-09-05T03:13:39.598Z,8.67
2018-09-05T03:16:09.608Z,8.97
2018-09-05T03:18:40.057Z,8.30
2018-09-05T03:21:09.906Z,8.97
2018-09-05T03:23:40.071Z,8.87
2018-09-05T03:26:09.874Z,9.20
2018-09-05T03:28:39.915Z,10.37
2018-09-05T03:31:09.654Z,9.30
2018-09-05T03:33:39.489Z,9.43
2018-09-05T03:36:09.573Z,8.80
2018-09-05T03:38:39.446Z,9.20
2018-09-05T03:41:09.572Z,9.37
2018-09-05T03:43:39.357Z,9.60
2018-09-05T03:46:09.550Z,9.87
2018-09-05T03:48:39.753Z,10.07
2018-09-05T03:51:12.513Z,9.70
2018-09-05T03:53:42.792Z,9.57
2018-09-05T03:56:12.561Z,9.47
2018-09-05T03:58:42.409Z,9.80
2018-09-05T04:01:13.966Z,9.87
2018-09-05T04:03:43.714Z,10.27
2018-09-05T04:06:17.605Z,10.43
2018-09-05T04:08:47.434Z,9.93
2018-09-05T04:11:17.520Z,9.17
2018-09-05T04:13:47.597Z,9.70
2018-09-05T04:16:17.432Z,9.57
2018-09-05T04:18:47.692Z,10.23
2018-09-05T04:21:17.611Z,10.57
2018-09-05T04:23:49.226Z,10.43
2018-09-05T04:26:20.169Z,9.65
2018-09-05T04:28:50.459Z,9.98
2018-09-05T04:31:20.493Z,9.70
2018-09-05T04:33:50.537Z,9.77
2018-09-05T04:36:20.768Z,9.37
2018-09-05T04:38:50.644Z,10.07
2018-09-05T04:41:20.670Z,9.53
2018-09-05T04:43:50.591Z,9.13
2018-09-05T04:46:20.753Z,9.90
2018-09-05T04:48:50.780Z,10.40
2018-09-05T04:51:20.492Z,9.43
2018-09-05T04:53:54.628Z,10.40
2018-09-05T04:56:24.601Z,10.40
2018-09-05T04:58:55.401Z,10.93
2018-09-05T05:01:25.661Z,10.00
2018-09-05T05:03:55.458Z,10.57
2018-09-05T05:06:25.532Z,10.23
2018-09-05T05:08:55.265Z,10.18
2018-09-05T05:11:25.717Z,10.80
2018-09-05T06:09:59.258Z,16.87
2018-09-05T06:12:28.992Z,17.07
2018-09-05T06:14:59.181Z,17.40
2018-09-05T06:17:29.181Z,16.73
2018-09-05T06:19:59.073Z,16.47
2018-09-05T06:22:29.644Z,16.73
2018-09-05T06:24:59.415Z,16.37
2018-09-05T06:27:29.573Z,15.60
2018-09-05T06:29:59.300Z,15.03
2018-09-05T06:32:29.104Z,14.90
2018-09-05T06:34:59.129Z,16.23
2018-09-05T06:37:29.141Z,15.80
2018-09-05T06:39:59.256Z,15.63
2018-09-05T06:42:29.398Z,16.43
2018-09-05T06:44:59.259Z,15.87
2018-09-05T06:47:29.250Z,15.13
2018-09-05T06:49:59.056Z,16.37
2018-09-05T06:52:29.418Z,16.10
2018-09-05T06:54:59.204Z,16.07
2018-09-05T06:57:29.237Z,16.93
2018-09-05T06:59:59.274Z,16.00
2018-09-05T07:02:29.669Z,16.20
2018-09-05T07:04:59.685Z,15.83
2018-09-05T07:07:29.792Z,16.60
2018-09-05T07:09:59.639Z,16.93
2018-09-05T07:12:29.675Z,15.83
2018-09-05T07:14:59.876Z,16.10
2018-09-05T07:17:30.136Z,15.70
2018-09-05T07:20:00.045Z,13.93
2018-09-05T07:22:32.057Z,16.93
2018-09-05T07:25:02.101Z,15.77
2018-09-05T07:27:32.181Z,15.70
2018-09-05T07:30:02.337Z,15.10
2018-09-05T07:32:32.660Z,15.43
2018-09-05T07:35:02.493Z,15.03
2018-09-05T07:37:32.283Z,15.03
2018-09-05T07:40:02.111Z,14.30
2018-09-05T07:42:32.328Z,14.07
2018-09-05T07:45:02.286Z,12.87
2018-09-05T07:47:32.147Z,13.23
2018-09-05T07:50:02.417Z,15.70
2018-09-05T07:52:32.152Z,13.73
2018-09-05T07:55:02.055Z,14.67
2018-09-05T07:57:32.175Z,12.73
2018-09-05T08:00:02.246Z,12.50
2018-09-05T08:02:32.076Z,11.67
2018-09-05T08:05:02.185Z,10.97
2018-09-05T08:07:32.079Z,12.13
2018-09-05T08:10:02.226Z,11.40
2018-09-05T08:12:32.168Z,10.53
2018-09-05T08:15:02.248Z,11.70
2018-09-05T08:17:32.290Z,10.83
2018-09-05T08:20:02.122Z,11.23
2018-09-05T08:22:32.237Z,11.13
2018-09-05T08:25:02.052Z,10.63
2018-09-05T08:27:32.005Z,11.00
2018-09-05T08:30:02.128Z,9.83
2018-09-05T08:32:32.029Z,10.27
2018-09-05T08:35:02.284Z,10.03
2018-09-05T08:37:32.389Z,9.33
2018-09-05T08:40:02.397Z,9.03
2018-09-05T08:42:34.390Z,8.70
2018-09-05T08:45:04.938Z,7.77
2018-09-05T08:47:35.141Z,8.27
2018-09-05T08:50:05.482Z,7.87
2018-09-05T08:52:35.397Z,7.80
2018-09-05T08:55:05.340Z,8.53
2018-09-05T08:57:35.387Z,7.73
2018-09-05T09:00:05.673Z,7.73
2018-09-05T09:02:35.456Z,7.20
2018-09-05T09:05:05.638Z,7.43
2018-09-05T09:07:35.818Z,7.30
2018-09-05T09:10:06.812Z,6.70
2018-09-05T09:12:36.723Z,6.07
2018-09-05T09:15:07.080Z,6.10
2018-09-05T09:17:37.179Z,6.17
2018-09-05T09:20:07.198Z,6.50
2018-09-05T09:22:37.386Z,6.47
2018-09-05T09:25:07.230Z,7.00
2018-09-05T09:27:37.282Z,6.10
2018-09-05T09:30:07.436Z,7.03
2018-09-05T09:32:37.438Z,6.73
2018-09-05T09:35:07.561Z,7.37
2018-09-05T09:37:37.760Z,7.03
2018-09-05T09:40:07.916Z,6.60
2018-09-05T09:42:38.174Z,7.53
2018-09-05T09:45:08.771Z,7.67
2018-09-05T09:47:39.038Z,6.83
2018-09-05T09:50:08.935Z,6.83
2018-09-05T09:52:39.480Z,7.50
2018-09-05T09:55:10.005Z,6.70
2018-09-05T09:57:39.832Z,6.80
2018-09-05T10:00:10.247Z,7.00
2018-09-05T10:02:44.872Z,6.70
2018-09-05T10:05:19.836Z,6.33
2018-09-05T10:07:55.033Z,6.25
2018-09-05T10:10:30.356Z,6.50
2018-09-05T10:13:05.261Z,6.70
2018-09-05T10:16:40.768Z,6.47
2018-09-05T10:19:12.073Z,6.40
2018-09-05T10:21:42.051Z,6.00
2018-09-05T10:24:12.818Z,5.80
2018-09-05T10:26:42.561Z,5.90
2018-09-05T10:29:12.337Z,6.33
2018-09-05T10:31:42.189Z,6.33
2018-09-05T10:34:12.222Z,6.20
2018-09-05T10:36:42.413Z,6.37
2018-09-05T10:39:12.452Z,5.60
2018-09-05T10:41:42.566Z,6.00
2018-09-05T10:44:12.421Z,5.93
2018-09-05T10:46:42.336Z,5.70
2018-09-05T10:49:12.273Z,6.27
2018-09-05T10:51:47.418Z,5.87
2018-09-05T10:54:17.553Z,6.20
2018-09-05T10:56:47.268Z,5.10
2018-09-05T10:59:17.042Z,6.17
2018-09-05T11:01:47.313Z,5.97
2018-09-05T11:04:17.077Z,5.87
2018-09-05T11:06:47.438Z,5.90
2018-09-05T11:09:17.190Z,6.10
2018-09-05T11:11:47.026Z,6.33
2018-09-05T11:14:17.955Z,5.67
2018-09-05T11:16:47.976Z,5.28
2018-09-05T11:19:18.462Z,5.90
2018-09-05T11:21:48.202Z,5.60
2018-09-05T11:24:18.147Z,5.60
2018-09-05T11:26:48.133Z,5.20
2018-09-05T11:29:18.070Z,5.30
2018-09-05T11:31:48.332Z,5.53
2018-09-05T11:34:18.101Z,5.23
2018-09-05T11:36:48.081Z,5.53
2018-09-05T11:39:18.329Z,5.67
2018-09-05T11:41:48.084Z,6.27
2018-09-05T11:44:18.275Z,6.03
2018-09-05T11:46:48.119Z,5.80
2018-09-05T11:49:18.074Z,6.13
2018-09-05T11:51:48.060Z,5.83
2018-09-05T11:54:18.066Z,5.93
2018-09-05T11:56:48.925Z,5.97
2018-09-05T11:59:18.944Z,5.67
2018-09-05T12:01:49.063Z,5.40
2018-09-05T12:04:19.261Z,5.53
2018-09-05T12:06:49.132Z,5.83
2018-09-05T12:09:19.062Z,5.47
2018-09-05T12:11:49.113Z,6.30
2018-09-05T12:14:18.945Z,5.60
2018-09-05T12:16:49.225Z,5.60
2018-09-05T12:19:19.071Z,5.80
2018-09-05T12:21:49.045Z,6.00
2018-09-05T12:24:19.163Z,6.10
2018-09-05T12:26:49.370Z,5.73
2018-09-05T12:29:19.482Z,5.87
2018-09-05T12:31:49.277Z,5.03
2018-09-05T12:34:19.048Z,5.70
2018-09-05T12:36:49.321Z,5.77
2018-09-05T12:39:19.122Z,5.97
2018-09-05T12:41:49.085Z,5.47
2018-09-05T12:44:19.234Z,5.67
2018-09-05T12:46:49.085Z,5.67
2018-09-05T12:49:19.050Z,5.30
2018-09-05T12:51:49.141Z,5.17
2018-09-05T12:54:19.249Z,5.03
2018-09-05T12:56:49.133Z,5.50
2018-09-05T12:59:19.094Z,5.73
2018-09-05T13:01:49.093Z,5.30
2018-09-05T13:04:19.424Z,5.73
2018-09-05T13:06:49.256Z,5.03
2018-09-05T13:09:19.476Z,4.90
2018-09-05T13:11:49.202Z,4.90
2018-09-05T13:14:19.538Z,4.87
2018-09-05T13:16:49.366Z,5.73
2018-09-05T13:19:19.189Z,5.90
2018-09-05T13:21:49.151Z,5.73
2018-09-05T13:24:19.099Z,5.03
2018-09-05T13:26:49.085Z,5.87
2018-09-05T13:29:19.262Z,5.63
2018-09-05T13:31:49.303Z,5.15
2018-09-05T13:34:19.128Z,5.03
2018-09-05T13:36:49.230Z,5.10
2018-09-05T13:39:19.187Z,4.53
2018-09-05T13:41:49.461Z,5.30
2018-09-05T13:44:19.525Z,4.83
2018-09-05T13:46:49.739Z,4.93
2018-09-05T13:49:19.674Z,4.80
2018-09-05T13:51:54.499Z,4.57
2018-09-05T13:54:24.533Z,4.70
2018-09-05T13:56:54.292Z,4.60
2018-09-05T13:59:24.158Z,5.43
2018-09-05T14:01:54.097Z,5.60
2018-09-05T14:04:24.312Z,5.30
2018-09-05T14:06:54.904Z,5.03
2018-09-05T14:09:24.974Z,5.50
2018-09-05T14:12:57.748Z,5.05
2018-09-05T14:15:27.497Z,5.47
2018-09-05T14:17:57.552Z,5.17
2018-09-05T14:20:27.541Z,4.60
2018-09-05T14:22:57.520Z,5.47
2018-09-05T14:25:27.440Z,5.27
2018-09-05T14:27:57.159Z,5.37
2018-09-05T14:30:27.080Z,4.80
2018-09-05T14:32:56.886Z,4.73
2018-09-05T14:35:26.787Z,4.90
2018-09-05T14:37:56.817Z,4.93
2018-09-05T14:40:26.534Z,4.57
2018-09-05T14:42:56.220Z,5.03
2018-09-05T14:45:26.093Z,4.50
2018-09-05T14:47:55.998Z,5.00
2018-09-05T14:50:26.214Z,4.57
2018-09-05T14:52:56.046Z,4.43
2018-09-05T14:55:26.087Z,5.10
2018-09-05T14:57:56.271Z,4.77
2018-09-05T15:00:25.948Z,4.07
2018-09-05T15:02:55.987Z,5.92
2018-09-05T15:05:26.162Z,5.87
2018-09-05T15:07:56.011Z,4.47
2018-09-05T15:10:26.173Z,4.60
2018-09-05T15:12:55.965Z,4.53
2018-09-05T15:15:25.920Z,4.17
2018-09-05T15:17:55.985Z,5.10
2018-09-05T15:20:26.117Z,4.60
2018-09-05T15:22:56.021Z,4.97
2018-09-05T15:25:26.160Z,4.80
2018-09-05T15:27:56.019Z,4.90
2018-09-05T15:30:26.402Z,6.00
2018-09-05T15:32:56.100Z,5.50
2018-09-05T15:35:25.998Z,5.20
2018-09-05T15:37:56.117Z,5.23
2018-09-05T15:40:26.070Z,5.43
2018-09-05T15:42:56.085Z,4.90
2018-09-05T15:45:26.096Z,5.70
2018-09-05T15:47:56.226Z,5.57
2018-09-05T15:50:26.255Z,5.50
2018-09-05T15:52:56.246Z,5.83
2018-09-05T15:55:26.175Z,4.97
2018-09-05T15:57:55.964Z,5.00
2018-09-05T16:00:26.325Z,5.10
2018-09-05T16:02:56.032Z,4.60
2018-09-05T16:05:26.352Z,4.80
2018-09-05T16:07:56.126Z,4.70
2018-09-05T16:10:25.959Z,4.60
2018-09-05T16:12:56.117Z,4.57
2018-09-05T16:15:26.103Z,4.27
2018-09-05T16:17:56.053Z,4.47
2018-09-05T16:20:26.257Z,4.40
2018-09-05T16:22:55.956Z,4.73
2018-09-05T16:25:26.056Z,4.95
2018-09-05T16:27:56.062Z,4.87
2018-09-05T16:30:26.051Z,5.13
2018-09-05T16:32:56.032Z,4.37
2018-09-05T16:35:26.223Z,4.50
2018-09-05T16:37:56.337Z,4.70
2018-09-05T16:40:33.820Z,4.60
2018-09-05T16:43:03.607Z,4.20
2018-09-05T16:45:33.329Z,4.37
2018-09-05T16:48:03.048Z,4.30
2018-09-05T16:50:33.005Z,4.60
2018-09-05T16:53:03.137Z,4.53
2018-09-05T16:55:33.233Z,4.43
2018-09-05T16:58:03.029Z,4.20
2018-09-05T17:00:33.027Z,4.73
2018-09-05T17:03:03.061Z,4.50
2018-09-05T17:05:33.057Z,4.47
2018-09-05T17:08:03.321Z,4.58
2018-09-05T17:10:33.022Z,5.10
2018-09-05T17:13:03.179Z,5.05
2018-09-05T17:15:33.287Z,5.23
2018-09-05T17:18:03.297Z,5.03
2018-09-05T17:20:33.215Z,5.15
2018-09-05T17:23:02.914Z,5.47
2018-09-05T17:25:32.633Z,5.03
2018-09-05T17:28:02.805Z,5.07
2018-09-05T17:30:32.526Z,5.17
2018-09-05T17:33:02.848Z,5.57
2018-09-05T17:35:32.545Z,6.03
2018-09-05T17:38:02.901Z,7.00
2018-09-05T17:40:32.695Z,9.13
2018-09-05T17:43:02.403Z,8.17
2018-09-05T17:45:33.325Z,7.90
2018-09-05T17:48:04.027Z,7.37
2018-09-05T17:50:35.019Z,7.08
2018-09-05T17:53:05.770Z,8.65
2018-09-05T17:55:37.315Z,8.86
2018-09-05T17:58:08.137Z,8.38
2018-09-05T18:00:39.305Z,8.20
2018-09-05T18:03:10.097Z,7.60
2018-09-05T18:05:41.013Z,8.08
2018-09-05T18:08:11.879Z,7.30
2018-09-05T18:10:43.816Z,6.90
2018-09-05T18:13:14.097Z,6.37
2018-09-05T18:15:51.422Z,6.20
2018-09-05T18:18:22.150Z,7.03
2018-09-05T18:20:52.386Z,6.87
2018-09-05T18:23:22.146Z,6.60
2018-09-05T18:25:51.958Z,7.30
2018-09-05T18:28:22.201Z,7.63
2018-09-05T18:30:52.024Z,7.80
2018-09-05T18:33:21.913Z,7.20
2018-09-05T18:35:52.827Z,7.90
2018-09-05T18:38:24.402Z,7.36
2018-09-05T18:40:56.338Z,7.40
2018-09-05T18:43:26.344Z,7.23
2018-09-05T18:45:57.768Z,7.30
2018-09-05T18:48:28.380Z,7.90
2018-09-05T18:50:58.961Z,7.67
2018-09-05T18:53:29.870Z,7.67
2018-09-05T18:56:01.267Z,7.96
2018-09-05T18:58:32.746Z,8.05
2018-09-05T19:01:02.992Z,7.60
2018-09-05T19:03:33.861Z,8.40
2018-09-05T19:06:04.894Z,8.25
2018-09-05T19:08:37.014Z,8.60
2018-09-05T19:11:06.727Z,8.80
2018-09-05T19:13:38.156Z,8.18
2018-09-05T19:16:08.880Z,8.20
2018-09-05T19:18:45.748Z,7.95
2018-09-05T19:21:15.662Z,8.17
2018-09-05T19:23:45.505Z,9.03
2018-09-05T19:26:15.244Z,7.70
2018-09-05T19:28:44.957Z,8.40
2018-09-05T19:31:15.861Z,9.13
2018-09-05T19:33:45.836Z,11.10
2018-09-05T19:36:17.497Z,11.36
2018-09-05T19:38:48.080Z,11.40
2018-09-05T19:41:19.251Z,8.60
2018-09-05T19:43:50.161Z,7.97
2018-09-05T19:46:21.235Z,7.17
2018-09-05T19:48:52.402Z,7.58
2018-09-05T19:51:24.009Z,7.10
2018-09-05T19:53:54.049Z,7.10
2018-09-05T19:56:24.834Z,6.70
2018-09-05T19:58:56.452Z,7.30
2018-09-05T20:01:27.952Z,7.12
2018-09-05T20:03:59.996Z,214.47
2018-09-05T20:06:29.818Z,563.20
2018-09-05T20:09:00.458Z,436.12
2018-09-05T20:11:31.068Z,20.08
2018-09-05T20:14:02.537Z,8.43
2018-09-05T20:16:34.148Z,8.25
2018-09-05T20:19:04.164Z,7.10
2018-09-05T20:21:40.918Z,6.72
2018-09-05T20:24:11.001Z,6.60
2018-09-05T20:26:40.787Z,6.17
2018-09-05T20:29:10.621Z,5.95
2018-09-05T20:31:40.535Z,6.27
2018-09-05T20:34:10.815Z,5.70
2018-09-05T20:36:40.827Z,6.23
2018-09-05T20:39:12.248Z,6.00
2018-09-05T20:41:42.561Z,5.80
2018-09-05T20:44:19.496Z,16.82
2018-09-05T20:46:50.118Z,7.25
2018-09-05T20:49:19.881Z,6.07
2018-09-05T20:51:49.985Z,6.10
2018-09-05T20:54:19.849Z,6.00
2018-09-05T20:56:49.611Z,6.37
2018-09-05T20:59:19.616Z,6.23
2018-09-05T21:01:50.123Z,6.83
2018-09-05T21:04:21.059Z,7.25
2018-09-05T21:06:52.001Z,7.45
2018-09-05T21:09:23.148Z,6.90
2018-09-05T21:11:54.837Z,6.87
2018-09-05T21:14:25.268Z,7.45
2018-09-05T21:16:56.049Z,7.97
2018-09-05T21:19:27.661Z,7.00
2018-09-05T21:21:58.317Z,6.70
2018-09-05T21:24:29.351Z,6.67
2018-09-05T21:27:00.400Z,7.08
2018-09-05T21:29:31.095Z,6.70
2018-09-05T21:32:01.635Z,6.47
2018-09-05T21:34:32.206Z,6.22
2018-09-05T21:37:03.390Z,6.83
2018-09-05T21:39:34.162Z,6.53
2018-09-05T21:42:05.194Z,6.05
2018-09-05T21:44:36.587Z,6.17
2018-09-05T21:47:07.264Z,7.00
2018-09-05T21:49:38.118Z,6.40
2018-09-05T21:52:09.046Z,6.65
2018-09-05T21:54:39.845Z,6.17
2018-09-05T21:57:11.153Z,6.50
2018-09-05T21:59:42.350Z,6.05
2018-09-05T22:02:13.603Z,6.33
2018-09-05T22:04:44.141Z,6.18
2018-09-05T22:07:14.918Z,6.62
2018-09-05T22:09:47.020Z,6.30
2018-09-05T22:12:17.097Z,6.90
2018-09-05T22:14:48.475Z,6.33
2018-09-05T22:17:19.006Z,6.45
2018-09-05T22:19:49.991Z,6.72
2018-09-05T22:22:21.441Z,5.72
2018-09-05T22:24:52.373Z,6.35
2018-09-05T22:27:22.917Z,5.87
2018-09-05T22:29:56.130Z,6.65
2018-09-05T22:32:26.045Z,6.47
2018-09-05T22:34:55.931Z,6.53
2018-09-05T22:37:27.070Z,6.50
2018-09-05T22:39:57.921Z,6.60
2018-09-05T22:42:28.897Z,6.60
2018-09-05T22:45:10.248Z,6.72
2018-09-05T22:47:54.840Z,6.60
2018-09-05T22:51:36.725Z,6.83
2018-09-05T22:55:26.302Z,6.93
2018-09-05T22:59:04.166Z,6.83
2018-09-05T23:01:41.674Z,6.40
2018-09-05T23:05:27.045Z,6.83
2018-09-05T23:08:43.775Z,6.93
2018-09-05T23:11:24.082Z,7.07
2018-09-05T23:15:06.815Z,6.87
2018-09-05T23:18:47.201Z,7.20
2018-09-05T23:21:20.430Z,7.13
2018-09-05T23:23:55.434Z,6.43
2018-09-05T23:26:25.533Z,7.63
2018-09-05T23:28:55.368Z,7.50
2018-09-05T23:31:25.752Z,7.53
2018-09-05T23:33:55.953Z,7.47
2018-09-05T23:36:26.454Z,6.75
2018-09-05T23:38:56.280Z,6.80
2018-09-05T23:41:26.092Z,6.60
2018-09-05T23:43:56.134Z,6.80
2018-09-05T23:46:26.365Z,7.97
2018-09-05T23:48:56.289Z,6.50
2018-09-05T23:51:26.101Z,6.93
2018-09-05T23:53:56.122Z,7.37
2018-09-05T23:56:26.657Z,6.47
2018-09-05T23:58:56.438Z,6.67
